Dalton, GA

6:20 PM EDT on April 25, 2015 (GMT -0400)
Russell | | Change Station
CLOSE
Current Station
Airport
Location: Rome,
Elevation: 643 ft
Nearby Weather Stations

Elev 643 ft 34.35 °N, 85.16 °W | Updated 27 minutes ago

Partly Cloudy
Partly Cloudy
75 °F
Feels Like 75 °F
N
6
Wind Variable Wind from WSW

Today
High -- | Low -- °F
--% Chance of Precip.
Yesterday
High -- | Low -- °F
Precip. -- in
6:56 AM 8:19 PM
Waxing Crescent, 49% visible
Pressure 29.63 in
Visibility 10.0 miles
Clouds Few 2800 ft
Scattered Clouds 3400 ft
Scattered Clouds 4600 ft
Dew Point 66 °F
Humidity 73%
Rainfall 0.72 in
Snow Depth Not available.
UV 2 out of 12
Pollen .40 out of 12
Air Quality Not available.
Flu Activity Sporadic
METAR KRMG 252153Z AUTO 24005KT 10SM FEW028 SCT034 SCT046 24/19 A2965 RMK AO2 SLP032 T02390189 $

More Conditions Fewer Conditions

Pressure 29.63 in
Visibility 10.0 miles
Clouds Few 2800 ft
Scattered Clouds 3400 ft
Scattered Clouds 4600 ft
Dew Point 66 °F
Humidity 73%
Rainfall 0.72 in
Snow Depth Not available.
UV 2 out of 12
Pollen .40 out of 12
Air Quality Not available.
Flu Activity Sporadic
METAR KRMG 252153Z AUTO 24005KT 10SM FEW028 SCT034 SCT046 24/19 A2965 RMK AO2 SLP032 T02390189 $

More Conditions Fewer Conditions

10-Day Weather Forecast

Almanac

Astronomy

Apr. 25, 2015 Rise Set
Actual Time
Civil Twilight
Nautical Twilight
Astronomical Twilight
Moon
Length of Visible Light
Length of Day
Tomorrow will be .
, % of the Moon is Illuminated

Today's Extremes

State Highs State Lows

Community

WunderPhotos

Upload Photos

1,816,833 photos uploaded!

WunderBlogs® & News

Nearby

Air Quality

  Air Quality AQ Index Pollutant
Not available.

Snow Depth

Station Depth Elevation

Earthquake Activity

City Distance Mag. Time & Date
Minimum magnitude displayed is 2.5.

Coastal Water Temperatures

Place Temperature

Stations

Nearby Weather Stations

Station Location Temp. Windchill Dew Point Humidity Wind Precip. Elev Updated Type